createdAt,value
2023-01-09T00:00:59.358Z,99184.66
2023-01-09T00:03:26.927Z,99181.91
2023-01-09T00:05:54.942Z,99176.06
2023-01-09T00:08:23.851Z,99168.06
2023-01-09T00:10:51.650Z,99157.66
2023-01-09T00:13:19.313Z,99164.59
2023-01-09T00:15:49.075Z,99154.47
2023-01-09T00:18:16.712Z,99149.91
2023-01-09T01:13:24.655Z,99105.22
2023-01-09T03:15:37.837Z,99020.31
2023-01-09T03:18:07.084Z,99025.38
2023-01-09T03:20:34.716Z,99016.84
2023-01-09T03:23:04.308Z,99010.72
2023-01-09T03:25:32.523Z,99006.94
2023-01-09T03:28:01.589Z,99014.47
2023-01-09T03:30:31.096Z,99019.25
2023-01-09T03:33:00.467Z,99009.66
2023-01-09T03:35:28.700Z,99010.19
2023-01-09T03:37:56.661Z,99011.53
2023-01-09T03:40:24.126Z,99013.97
2023-01-09T03:42:51.706Z,99016.34
2023-01-09T03:45:19.239Z,99013.94
2023-01-09T03:47:46.870Z,99005.94
2023-01-09T03:50:16.498Z,98999.22
2023-01-09T03:52:44.212Z,99008.88
2023-01-09T03:55:11.950Z,99006.75
2023-01-09T03:57:39.511Z,98999.00
2023-01-09T04:00:09.472Z,98995.81
2023-01-09T04:02:37.116Z,98999.50
2023-01-09T04:05:04.924Z,98994.19
2023-01-09T04:07:34.075Z,98993.97
2023-01-09T04:10:01.747Z,98991.53
2023-01-09T04:12:32.054Z,98985.84
2023-01-09T04:15:00.165Z,98983.00
2023-01-09T04:17:30.477Z,98985.91
2023-01-09T04:20:00.600Z,98993.66
2023-01-09T04:22:29.975Z,98983.84
2023-01-09T04:25:02.078Z,98983.22
2023-01-09T04:27:29.744Z,98979.50
2023-01-09T04:29:59.875Z,98981.63
2023-01-09T04:32:27.754Z,98978.94
2023-01-09T04:34:55.497Z,98979.50
2023-01-09T04:37:23.544Z,98973.88
2023-01-09T04:39:53.363Z,98978.69
2023-01-09T04:42:22.681Z,98981.09
2023-01-09T04:44:53.656Z,98984.28
2023-01-09T04:47:21.625Z,98978.41
2023-01-09T04:49:49.362Z,98979.19
2023-01-09T04:52:17.707Z,98980.00
2023-01-09T05:04:43.246Z,98973.34
2023-01-09T05:07:28.343Z,98979.50
2023-01-09T05:10:11.809Z,98972.00
2023-01-09T05:15:30.851Z,98961.38
2023-01-09T05:17:58.711Z,98951.97
2023-01-09T05:21:04.585Z,98954.38
2023-01-09T05:37:19.893Z,98952.03
2023-01-09T05:59:59.263Z,98972.13
2023-01-09T06:05:57.420Z,98973.44
2023-01-09T06:08:26.280Z,98970.50
2023-01-09T06:11:17.775Z,98972.09
2023-01-09T06:19:55.523Z,98986.81
2023-01-09T06:22:23.152Z,98990.84
2023-01-09T06:24:50.711Z,98982.28
2023-01-09T06:27:18.288Z,98990.03
2023-01-09T06:29:45.776Z,98984.16
2023-01-09T06:32:14.622Z,98995.91
2023-01-09T06:34:42.185Z,99001.78
2023-01-09T06:37:09.625Z,99000.75
2023-01-09T06:39:37.090Z,99003.94
2023-01-09T06:42:04.723Z,99001.28
2023-01-09T06:44:32.955Z,99004.47
2023-01-09T06:47:00.372Z,99005.53
2023-01-09T06:49:29.085Z,98994.59
2023-01-09T06:51:56.551Z,98988.16
2023-01-09T06:54:24.148Z,98993.25
2023-01-09T06:56:51.490Z,99001.00
2023-01-09T06:59:18.840Z,99003.44
2023-01-09T07:01:46.441Z,99006.63
2023-01-09T07:04:13.991Z,99002.09
2023-01-09T07:06:42.698Z,99013.06
2023-01-09T07:09:13.133Z,99006.63
2023-01-09T07:11:40.781Z,99012.81
2023-01-09T07:14:08.551Z,99016.81
2023-01-09T07:16:35.977Z,99024.03
2023-01-09T07:19:03.370Z,99029.38
2023-01-09T07:21:32.730Z,99028.31
2023-01-09T07:24:01.859Z,99037.97
2023-01-09T07:26:29.347Z,99050.25
2023-01-09T07:28:56.742Z,99046.00
2023-01-09T07:31:24.378Z,99056.41
2023-01-09T07:33:52.026Z,99070.34
2023-01-09T07:36:19.610Z,99073.50
2023-01-09T07:38:47.065Z,99061.19
2023-01-09T07:41:15.978Z,99072.19
2023-01-09T07:43:43.511Z,99072.97
2023-01-09T07:46:11.076Z,99079.69
2023-01-09T07:48:38.561Z,99079.69
2023-01-09T07:51:06.205Z,99081.78
2023-01-09T07:53:33.701Z,99089.28
2023-01-09T07:56:01.211Z,99093.84
2023-01-09T07:58:30.213Z,99098.69
2023-01-09T08:00:57.744Z,99095.47
2023-01-09T08:03:26.771Z,99100.25
2023-01-09T08:05:54.219Z,99096.03
2023-01-09T08:08:23.127Z,99102.94
2023-01-09T08:10:50.559Z,99106.41
2023-01-09T08:13:18.075Z,99106.69
2023-01-09T08:15:46.884Z,99112.25
2023-01-09T08:18:14.391Z,99118.47
2023-01-09T08:20:41.851Z,99126.69
2023-01-09T08:23:09.233Z,99128.34
2023-01-09T08:25:36.646Z,99125.41
2023-01-09T08:28:04.028Z,99125.91
2023-01-09T08:30:31.399Z,99123.53
2023-01-09T08:33:00.138Z,99133.16
2023-01-09T08:35:27.590Z,99144.88
2023-01-09T08:37:55.072Z,99153.47
2023-01-09T08:40:22.534Z,99143.00
2023-01-09T08:43:07.280Z,99148.69
2023-01-09T08:45:53.260Z,99148.41
2023-01-09T08:48:22.239Z,99153.75
2023-01-09T08:50:49.726Z,99167.13
2023-01-09T08:53:17.175Z,99162.81
2023-01-09T08:55:44.944Z,99167.31
2023-01-09T08:58:12.504Z,99173.53
2023-01-09T09:00:39.892Z,99174.00
2023-01-09T09:03:07.459Z,99178.38
2023-01-09T09:05:36.215Z,99184.72
2023-01-09T09:08:04.133Z,99180.69
2023-01-09T09:10:34.075Z,99182.59
2023-01-09T09:13:06.625Z,99175.84
2023-01-09T09:15:34.642Z,99184.00
2023-01-09T09:18:05.059Z,99180.72
2023-01-09T09:20:33.977Z,99175.13
2023-01-09T09:23:04.645Z,99190.09
2023-01-09T09:25:32.884Z,99194.69
2023-01-09T09:28:01.345Z,99202.13
2023-01-09T09:30:29.265Z,99199.22
2023-01-09T09:32:56.836Z,99207.53
2023-01-09T09:35:24.860Z,99218.25
2023-01-09T09:37:57.128Z,99215.84
2023-01-09T09:40:37.317Z,99217.91
2023-01-09T09:43:53.117Z,99224.38
2023-01-09T09:46:25.581Z,99232.91
2023-01-09T09:48:57.431Z,99227.88
2023-01-09T09:51:36.957Z,99230.47
2023-01-09T09:54:07.563Z,99234.25
2023-01-09T09:56:43.604Z,99247.03
2023-01-09T09:59:16.744Z,99239.00
2023-01-09T10:01:47.127Z,99241.94
2023-01-09T10:04:17.330Z,99231.25
2023-01-09T10:06:46.148Z,99233.09
2023-01-09T10:09:19.846Z,99237.44
2023-01-09T10:11:54.062Z,99244.88
2023-01-09T10:14:24.837Z,99238.53
2023-01-09T10:17:00.958Z,99245.78
2023-01-09T10:19:38.666Z,99250.31
2023-01-09T10:22:13.825Z,99245.78
2023-01-09T10:24:52.161Z,99237.16
2023-01-09T10:27:30.721Z,99235.03
2023-01-09T10:30:07.650Z,99242.31
2023-01-09T10:32:48.199Z,99235.56
2023-01-09T10:35:47.377Z,99238.59
2023-01-09T10:38:21.673Z,99242.03
2023-01-09T10:40:52.189Z,99245.78
2023-01-09T10:43:29.456Z,99254.88
2023-01-09T10:45:59.669Z,99249.59
2023-01-09T10:48:30.437Z,99251.16
2023-01-09T10:50:59.451Z,99246.84
2023-01-09T10:53:28.867Z,99257.59
2023-01-09T10:56:00.056Z,99253.00
2023-01-09T10:58:29.549Z,99242.34
2023-01-09T11:00:59.476Z,99241.78
2023-01-09T11:03:28.759Z,99253.38
2023-01-09T11:05:58.320Z,99248.00
2023-01-09T11:08:30.834Z,99252.03
2023-01-09T11:10:59.966Z,99249.16
2023-01-09T11:13:31.882Z,99249.16
2023-01-09T11:16:05.785Z,99251.81
2023-01-09T11:18:34.668Z,99252.81
2023-01-09T11:21:14.535Z,99256.06
2023-01-09T11:23:42.291Z,99257.13
2023-01-09T11:26:23.102Z,99255.22
2023-01-09T11:31:55.732Z,99248.75
2023-01-09T11:34:26.295Z,99260.91
2023-01-09T11:36:54.870Z,99253.91
2023-01-09T11:39:25.064Z,99254.97
2023-01-09T11:41:54.791Z,99256.88
2023-01-09T11:44:22.963Z,99255.53
2023-01-09T11:46:50.769Z,99249.41
2023-01-09T11:49:25.093Z,99264.16
2023-01-09T11:52:16.407Z,99260.91
2023-01-09T11:54:46.875Z,99268.41
2023-01-09T11:57:14.424Z,99259.34
2023-01-09T11:59:42.197Z,99267.56
2023-01-09T12:02:39.391Z,99265.72
2023-01-09T12:05:16.304Z,99270.28
2023-01-09T12:08:00.132Z,99270.50
2023-01-09T12:10:42.431Z,99275.06
2023-01-09T12:13:17.537Z,99271.59
2023-01-09T12:15:54.795Z,99281.00
2023-01-09T12:18:33.479Z,99278.53
2023-01-09T12:21:17.638Z,99278.91
2023-01-09T12:23:57.098Z,99272.97
2023-01-09T12:26:26.270Z,99268.44
2023-01-09T12:29:14.215Z,99273.97
2023-01-09T12:31:50.753Z,99269.78
2023-01-09T12:34:28.743Z,99267.59
2023-01-09T12:37:06.206Z,99268.59
2023-01-09T12:39:46.070Z,99279.06
2023-01-09T12:42:35.346Z,99277.44
2023-01-09T12:45:18.589Z,99269.91
2023-01-09T12:47:47.949Z,99268.09
2023-01-09T12:50:31.450Z,99268.59
2023-01-09T12:53:09.741Z,99271.53
2023-01-09T12:55:41.029Z,99267.56
2023-01-09T12:58:15.639Z,99267.31
2023-01-09T13:00:45.593Z,99265.44
2023-01-09T13:03:19.476Z,99275.34
2023-01-09T13:05:49.953Z,99273.75
2023-01-09T13:08:22.771Z,99268.41
2023-01-09T13:10:52.867Z,99276.13
2023-01-09T13:13:23.288Z,99278.00
2023-01-09T13:15:54.478Z,99275.31
2023-01-09T13:18:26.051Z,99284.72
2023-01-09T13:20:56.887Z,99286.81
2023-01-09T13:23:32.068Z,99284.38
2023-01-09T13:26:00.848Z,99288.16
2023-01-09T13:28:31.668Z,99288.41
2023-01-09T13:31:12.392Z,99287.09
2023-01-09T13:33:40.907Z,99288.72
2023-01-09T13:36:08.747Z,99286.03
2023-01-09T13:38:39.749Z,99279.88
2023-01-09T13:41:30.673Z,99278.84
2023-01-09T13:44:00.943Z,99277.50
2023-01-09T13:46:39.415Z,99280.69
2023-01-09T13:49:08.988Z,99279.34
2023-01-09T13:51:54.404Z,99281.22
2023-01-09T13:54:59.850Z,99281.28
2023-01-09T13:57:31.902Z,99271.59
2023-01-09T14:00:42.903Z,99290.09
2023-01-09T14:03:26.018Z,99291.91
2023-01-09T14:06:17.604Z,99295.19
2023-01-09T14:08:47.009Z,99296.28
2023-01-09T14:11:29.118Z,99305.38
2023-01-09T14:14:06.488Z,99314.44
2023-01-09T14:16:35.008Z,99313.94
2023-01-09T14:19:06.942Z,99304.56
2023-01-09T14:21:49.763Z,99325.13
2023-01-09T14:24:24.398Z,99332.31
2023-01-09T14:26:56.714Z,99330.72
2023-01-09T14:29:49.433Z,99333.69
2023-01-09T14:32:45.813Z,99335.78
2023-01-09T14:35:26.920Z,99334.25
2023-01-09T14:38:18.596Z,99333.19
2023-01-09T14:40:49.327Z,99340.16
2023-01-09T14:43:25.119Z,99337.50
2023-01-09T14:45:56.931Z,99343.66
2023-01-09T14:48:24.931Z,99346.25
2023-01-09T14:50:55.750Z,99346.06
2023-01-09T14:53:26.244Z,99352.28
2023-01-09T14:55:57.523Z,99349.88
2023-01-09T14:58:28.510Z,99352.84
2023-01-09T15:01:01.249Z,99359.81
2023-01-09T15:03:32.421Z,99362.00
2023-01-09T15:06:00.684Z,99359.31
2023-01-09T15:08:29.302Z,99360.94
2023-01-09T15:10:58.316Z,99362.84
2023-01-09T15:13:31.593Z,99363.34
2023-01-09T15:16:02.184Z,99362.81
2023-01-09T15:18:32.364Z,99361.75
2023-01-09T15:21:02.136Z,99371.38
2023-01-09T15:23:32.225Z,99366.84
2023-01-09T15:26:15.421Z,99374.88
2023-01-09T15:28:44.357Z,99368.03
2023-01-09T15:31:18.469Z,99368.63
2023-01-09T15:33:47.485Z,99386.84
2023-01-09T15:36:17.647Z,99393.28
2023-01-09T15:38:45.800Z,99391.47
2023-01-09T15:41:40.815Z,99386.94
2023-01-09T15:44:14.426Z,99392.47
2023-01-09T15:46:50.096Z,99394.28
2023-01-09T15:49:18.293Z,99392.50
2023-01-09T15:51:47.588Z,99402.38
2023-01-09T15:54:16.092Z,99390.59
2023-01-09T15:56:47.069Z,99395.81
2023-01-09T15:59:27.247Z,99401.22
2023-01-09T16:02:14.958Z,99407.81
2023-01-09T16:04:42.795Z,99414.28
2023-01-09T16:07:15.319Z,99413.66
2023-01-09T16:09:45.607Z,99426.53
2023-01-09T16:12:19.454Z,99418.78
2023-01-09T16:14:52.085Z,99421.50
2023-01-09T16:17:26.529Z,99427.63
2023-01-09T16:19:55.677Z,99430.53
2023-01-09T16:22:25.072Z,99426.56
2023-01-09T16:24:54.857Z,99423.69
2023-01-09T16:27:24.678Z,99432.84
2023-01-09T16:29:57.531Z,99426.75
2023-01-09T16:32:29.412Z,99440.13
2023-01-09T16:35:00.446Z,99444.19
2023-01-09T16:37:28.977Z,99443.44
2023-01-09T16:40:25.630Z,99449.81
2023-01-09T16:43:08.628Z,99453.34
2023-01-09T16:45:38.009Z,99438.94
2023-01-09T16:48:14.085Z,99451.09
2023-01-09T16:50:42.268Z,99461.06
2023-01-09T16:53:14.401Z,99460.16
2023-01-09T16:55:42.890Z,99455.50
2023-01-09T16:58:18.294Z,99468.88
2023-01-09T17:00:46.218Z,99467.50
2023-01-09T17:03:15.879Z,99467.56
2023-01-09T17:05:43.807Z,99471.72
2023-01-09T17:08:21.088Z,99474.56
2023-01-09T17:10:52.846Z,99484.00
2023-01-09T17:13:20.544Z,99487.66
2023-01-09T17:15:48.606Z,99487.81
2023-01-09T17:18:19.066Z,99490.53
2023-01-09T17:20:48.757Z,99495.84
2023-01-09T17:23:17.407Z,99499.38
2023-01-09T17:26:03.237Z,99502.00
2023-01-09T17:28:44.743Z,99509.31
2023-01-09T17:31:13.332Z,99505.09
2023-01-09T17:33:46.548Z,99508.41
2023-01-09T17:36:32.394Z,99518.84
2023-01-09T17:39:00.643Z,99514.50
2023-01-09T17:41:30.037Z,99523.91
2023-01-09T17:44:01.657Z,99521.22
2023-01-09T17:46:31.839Z,99526.09
2023-01-09T17:49:04.532Z,99533.69
2023-01-09T17:51:32.409Z,99542.28
2023-01-09T17:54:00.294Z,99547.34
2023-01-09T17:56:30.384Z,99550.63
2023-01-09T17:58:59.416Z,99553.03
2023-01-09T18:01:29.180Z,99556.44
2023-01-09T18:03:57.247Z,99560.47
2023-01-09T18:06:26.216Z,99571.22
2023-01-09T18:08:56.698Z,99575.00
2023-01-09T18:11:25.625Z,99589.19
2023-01-09T18:13:54.679Z,99583.75
2023-01-09T18:16:24.732Z,99588.00
2023-01-09T18:18:52.897Z,99595.53
2023-01-09T18:21:22.592Z,99600.03
2023-01-09T18:23:51.783Z,99603.38
2023-01-09T18:26:21.473Z,99600.41
2023-01-09T18:28:50.171Z,99605.00
2023-01-09T18:31:22.092Z,99613.53
2023-01-09T18:33:52.050Z,99619.03
2023-01-09T18:36:21.485Z,99624.13
2023-01-09T18:38:53.247Z,99627.91
2023-01-09T18:41:21.732Z,99626.84
2023-01-09T18:43:50.695Z,99636.72
2023-01-09T18:46:24.405Z,99642.44
2023-01-09T18:48:53.814Z,99644.59
2023-01-09T18:51:28.107Z,99654.41
2023-01-09T18:54:12.101Z,99661.41
2023-01-09T18:56:44.210Z,99678.16
2023-01-09T18:59:13.262Z,99673.75
2023-01-09T19:01:41.803Z,99680.56
2023-01-09T19:04:09.746Z,99682.63
2023-01-09T19:06:40.203Z,99692.06
2023-01-09T19:09:09.079Z,99706.47
2023-01-09T19:11:36.566Z,99701.66
2023-01-09T19:14:03.975Z,99704.56
2023-01-09T19:16:31.574Z,99704.19
2023-01-09T19:19:03.989Z,99707.28
2023-01-09T19:21:31.425Z,99715.91
2023-01-09T19:23:58.993Z,99719.81
2023-01-09T19:26:28.787Z,99720.28
2023-01-09T19:28:57.817Z,99723.75
2023-01-09T19:31:28.210Z,99727.25
2023-01-09T19:34:07.056Z,99729.16
2023-01-09T19:36:36.441Z,99743.16
2023-01-09T19:41:50.774Z,99754.34
2023-01-09T19:44:26.521Z,99759.22
2023-01-09T19:46:56.533Z,99764.56
2023-01-09T19:52:04.722Z,99777.31
2023-01-09T19:54:38.809Z,99782.47
2023-01-09T19:57:14.918Z,99777.75
2023-01-09T19:59:46.988Z,99785.44
2023-01-09T20:02:40.424Z,99778.00
2023-01-09T20:05:10.369Z,99791.03
2023-01-09T20:07:40.651Z,99795.25
2023-01-09T20:10:09.189Z,99802.94
2023-01-09T20:12:42.602Z,99810.31
2023-01-09T20:15:14.889Z,99805.13
2023-01-09T20:17:42.754Z,99812.78
2023-01-09T20:20:11.505Z,99810.66
2023-01-09T20:22:43.484Z,99819.81
2023-01-09T20:25:11.296Z,99829.16
2023-01-09T20:41:10.978Z,99852.19
2023-01-09T20:43:40.331Z,99862.84
2023-01-09T20:46:12.003Z,99863.59
2023-01-09T20:48:40.426Z,99873.38
2023-01-09T20:51:14.442Z,99876.06
2023-01-09T20:53:45.494Z,99891.44
2023-01-09T20:56:15.836Z,99897.19
2023-01-09T20:58:45.500Z,99908.25
2023-01-09T21:01:35.421Z,99906.88
2023-01-09T21:04:05.307Z,99909.72
2023-01-09T21:17:25.563Z,99929.28
2023-01-09T21:19:53.687Z,99924.81
2023-01-09T21:22:22.074Z,99930.88
2023-01-09T21:24:50.349Z,99927.47
2023-01-09T21:27:17.995Z,99938.78
2023-01-09T21:29:45.867Z,99937.88
2023-01-09T21:32:13.515Z,99940.78
2023-01-09T21:34:42.603Z,99946.78
2023-01-09T21:37:10.074Z,99942.75
2023-01-09T21:39:37.692Z,99955.81
2023-01-09T21:42:23.344Z,99956.69
2023-01-09T21:45:08.093Z,99954.88
2023-01-09T21:47:35.507Z,99971.81
2023-01-09T21:50:06.591Z,99974.03
2023-01-09T21:52:36.452Z,99978.91
2023-01-09T21:55:06.926Z,99983.94
2023-01-09T21:57:34.296Z,99990.75
2023-01-09T22:00:05.193Z,99986.63
2023-01-09T22:02:32.987Z,99997.34
2023-01-09T22:07:57.770Z,100006.47
2023-01-09T22:10:26.124Z,100013.88
2023-01-09T22:13:12.519Z,100022.22
2023-01-09T22:18:23.683Z,100036.91
2023-01-09T22:20:52.641Z,100040.88
2023-01-09T22:23:24.027Z,100043.31
2023-01-09T22:25:53.537Z,100043.63
2023-01-09T22:28:22.444Z,100049.31
2023-01-09T22:42:25.820Z,100066.44
2023-01-09T22:50:25.904Z,100071.19
2023-01-09T22:52:53.325Z,100078.84
2023-01-09T22:55:20.722Z,100087.97
2023-01-09T22:57:48.429Z,100098.03
2023-01-09T23:00:16.680Z,100100.41
2023-01-09T23:02:44.263Z,100105.38
2023-01-09T23:05:11.960Z,100107.16
2023-01-09T23:07:41.376Z,100115.97
2023-01-09T23:10:10.640Z,100115.41
2023-01-09T23:12:38.740Z,100121.78
2023-01-09T23:15:08.973Z,100124.34
2023-01-09T23:17:36.936Z,100123.78
2023-01-09T23:20:06.333Z,100129.31
2023-01-09T23:22:34.267Z,100132.44
2023-01-09T23:25:04.396Z,100137.22
2023-01-09T23:27:32.067Z,100140.47
2023-01-09T23:29:59.568Z,100146.81
2023-01-09T23:32:27.108Z,100149.72
2023-01-09T23:34:55.452Z,100158.56
2023-01-09T23:37:23.001Z,100160.00
2023-01-09T23:40:28.286Z,100156.88
2023-01-09T23:43:12.400Z,100169.13
2023-01-09T23:45:41.163Z,100170.63
2023-01-09T23:48:10.429Z,100170.53
2023-01-09T23:50:38.088Z,100181.31
2023-01-09T23:53:06.348Z,100184.09
2023-01-09T23:55:33.905Z,100188.50
2023-01-09T23:58:02.872Z,100198.63
